createdAt,value
2022-10-08T00:00:04.517Z,76.50
2022-10-08T00:02:49.628Z,77.00
2022-10-08T00:05:22.480Z,77.40
2022-10-08T00:07:56.229Z,77.60
2022-10-08T00:10:30.823Z,77.70
2022-10-08T00:13:07.631Z,77.90
2022-10-08T00:15:38.297Z,77.80
2022-10-08T00:18:40.201Z,78.20
2022-10-08T00:21:19.464Z,78.20
2022-10-08T00:23:51.981Z,78.40
2022-10-08T00:29:07.205Z,78.40
2022-10-08T00:31:41.509Z,78.50
2022-10-08T00:34:12.141Z,78.40
2022-10-08T00:36:41.858Z,78.60
2022-10-08T00:39:23.505Z,78.50
2022-10-08T00:44:54.132Z,78.40
2022-10-08T00:47:41.620Z,78.50
2022-10-08T00:50:26.503Z,78.50
2022-10-08T00:53:01.631Z,78.60
2022-10-08T00:55:43.990Z,78.80
2022-10-08T00:58:36.616Z,78.90
2022-10-08T01:01:09.439Z,78.80
2022-10-08T01:03:39.105Z,79.00
2022-10-08T01:06:38.100Z,79.10
2022-10-08T01:09:34.234Z,79.10
2022-10-08T01:12:37.773Z,79.20
2022-10-08T01:15:50.250Z,79.20
2022-10-08T01:18:36.856Z,79.60
2022-10-08T01:21:29.302Z,79.70
2022-10-08T01:25:03.108Z,79.80
2022-10-08T01:27:50.948Z,80.40
2022-10-08T01:30:25.650Z,80.70
2022-10-08T01:33:14.400Z,80.80
2022-10-08T01:35:54.203Z,80.80
2022-10-08T01:38:25.076Z,80.90
2022-10-08T01:41:02.343Z,81.00
2022-10-08T01:43:39.613Z,80.90
2022-10-08T01:46:18.430Z,80.80
2022-10-08T01:48:52.548Z,80.90
2022-10-08T01:51:44.653Z,80.80
2022-10-08T01:54:17.332Z,80.90
2022-10-08T01:56:48.327Z,80.90
2022-10-08T01:59:45.212Z,80.90
2022-10-08T02:02:25.390Z,80.90
2022-10-08T02:04:57.377Z,80.80
2022-10-08T02:07:33.629Z,80.90
2022-10-08T02:10:13.887Z,80.90
2022-10-08T02:12:44.657Z,81.00
2022-10-08T02:15:20.418Z,80.90
2022-10-08T02:18:10.458Z,80.90
2022-10-08T02:21:03.957Z,81.10
2022-10-08T02:23:56.046Z,81.10
2022-10-08T02:26:31.730Z,81.10
2022-10-08T02:29:01.505Z,81.10
2022-10-08T02:31:47.516Z,81.30
2022-10-08T02:34:29.218Z,81.10
2022-10-08T02:37:22.342Z,81.00
2022-10-08T02:40:02.925Z,81.00
2022-10-08T02:42:33.543Z,80.90
2022-10-08T02:45:22.015Z,81.00
2022-10-08T02:47:53.879Z,81.00
2022-10-08T02:50:31.841Z,81.10
2022-10-08T02:53:00.736Z,81.10
2022-10-08T02:55:52.053Z,81.20
2022-10-08T02:58:23.750Z,81.10
2022-10-08T03:01:14.337Z,81.30
2022-10-08T03:03:51.323Z,81.20
2022-10-08T03:06:19.056Z,81.40
2022-10-08T03:08:53.408Z,81.30
2022-10-08T03:11:25.991Z,81.40
2022-10-08T03:14:00.779Z,81.50
2022-10-08T03:16:40.948Z,81.60
2022-10-08T03:19:10.850Z,81.50
2022-10-08T03:21:40.230Z,81.50
2022-10-08T03:24:09.430Z,81.50
2022-10-08T03:26:37.213Z,81.40
2022-10-08T03:29:05.637Z,81.30
2022-10-08T03:31:38.691Z,81.20
2022-10-08T03:34:06.114Z,81.10
2022-10-08T03:36:33.586Z,81.00
2022-10-08T03:39:01.052Z,81.10
2022-10-08T03:41:31.550Z,81.10
2022-10-08T03:43:59.897Z,81.00
2022-10-08T03:46:27.294Z,80.90
2022-10-08T03:48:55.918Z,80.70
2022-10-08T03:51:26.530Z,80.60
2022-10-08T03:53:57.236Z,80.40
2022-10-08T03:56:29.437Z,80.40
2022-10-08T03:59:00.133Z,80.50
2022-10-08T04:01:30.576Z,80.50
2022-10-08T04:04:02.665Z,80.50
2022-10-08T04:06:30.716Z,80.60
2022-10-08T04:09:01.483Z,80.70
2022-10-08T04:11:29.906Z,80.70
2022-10-08T04:13:57.413Z,80.70
2022-10-08T04:16:32.711Z,80.80
2022-10-08T04:19:03.288Z,80.70
2022-10-08T04:21:40.735Z,80.70
2022-10-08T04:24:09.562Z,80.80
2022-10-08T04:26:38.333Z,81.20
2022-10-08T04:29:05.985Z,81.10
2022-10-08T04:31:40.188Z,81.00
2022-10-08T04:34:17.584Z,81.10
2022-10-08T04:36:49.825Z,81.10
2022-10-08T04:39:23.389Z,81.10
2022-10-08T04:41:58.255Z,80.90
2022-10-08T04:44:26.662Z,80.80
2022-10-08T04:46:58.760Z,80.80
2022-10-08T04:49:32.858Z,80.80
2022-10-08T04:52:00.883Z,80.80
2022-10-08T04:54:31.033Z,80.70
2022-10-08T04:57:04.097Z,80.80
2022-10-08T04:59:35.252Z,80.90
2022-10-08T05:02:14.106Z,81.10
2022-10-08T05:04:46.839Z,81.20
2022-10-08T05:07:29.813Z,81.30
2022-10-08T05:10:01.620Z,81.10
2022-10-08T05:12:29.381Z,81.00
2022-10-08T05:15:22.333Z,81.00
2022-10-08T05:17:50.814Z,81.00
2022-10-08T05:20:24.231Z,81.00
2022-10-08T05:22:59.448Z,81.00
2022-10-08T05:25:27.417Z,81.00
2022-10-08T05:28:00.008Z,81.00
2022-10-08T05:30:33.671Z,81.10
2022-10-08T05:33:02.360Z,81.20
2022-10-08T05:35:33.207Z,81.10
2022-10-08T05:38:01.596Z,81.10
2022-10-08T05:40:30.004Z,81.10
2022-10-08T05:42:57.642Z,81.10
2022-10-08T05:45:25.299Z,81.00
2022-10-08T05:47:52.737Z,81.00
2022-10-08T05:50:20.316Z,81.00
2022-10-08T05:52:50.395Z,81.00
2022-10-08T05:55:18.439Z,80.90
2022-10-08T05:57:45.829Z,81.00
2022-10-08T06:00:15.828Z,81.00
2022-10-08T06:02:42.982Z,81.10
2022-10-08T06:05:10.714Z,81.00
2022-10-08T06:07:38.013Z,81.00
2022-10-08T06:10:05.861Z,80.90
2022-10-08T06:12:36.242Z,80.90
2022-10-08T06:15:03.842Z,80.70
2022-10-08T06:17:31.579Z,80.70
2022-10-08T06:20:02.098Z,80.70
2022-10-08T06:22:33.871Z,80.60
2022-10-08T06:25:01.406Z,80.50
2022-10-08T06:27:30.984Z,80.60
2022-10-08T06:30:15.498Z,80.60
2022-10-08T06:32:43.654Z,80.60
2022-10-08T06:35:11.307Z,80.60
2022-10-08T06:37:43.454Z,80.60
2022-10-08T06:40:13.133Z,80.60
2022-10-08T06:42:46.010Z,80.80
2022-10-08T06:45:14.004Z,80.80
2022-10-08T06:47:51.611Z,80.70
2022-10-08T06:50:21.800Z,80.70
2022-10-08T06:52:51.575Z,80.60
2022-10-08T06:55:21.925Z,80.60
2022-10-08T06:57:52.338Z,80.60
2022-10-08T07:00:20.674Z,80.50
2022-10-08T07:02:50.751Z,80.20
2022-10-08T07:05:19.093Z,79.90
2022-10-08T07:07:46.996Z,79.80
2022-10-08T07:10:18.268Z,79.90
2022-10-08T07:12:49.256Z,79.70
2022-10-08T07:15:17.384Z,79.70
2022-10-08T07:17:51.490Z,79.20
2022-10-08T07:20:22.824Z,79.10
2022-10-08T07:22:50.272Z,79.30
2022-10-08T07:25:18.560Z,79.10
2022-10-08T07:27:48.058Z,79.10
2022-10-08T07:30:15.931Z,78.80
2022-10-08T07:32:43.288Z,78.40
2022-10-08T07:35:13.899Z,77.90
2022-10-08T07:37:45.122Z,77.40
2022-10-08T07:40:12.685Z,77.20
2022-10-08T07:42:40.616Z,77.10
2022-10-08T07:45:09.300Z,76.60
2022-10-08T07:47:36.735Z,76.40
2022-10-08T07:50:06.907Z,76.50
2022-10-08T07:52:37.292Z,75.30
2022-10-08T07:55:14.552Z,75.70
2022-10-08T07:57:47.341Z,75.00
2022-10-08T08:02:55.733Z,74.40
2022-10-08T08:05:27.857Z,74.00
2022-10-08T08:08:01.841Z,73.10
2022-10-08T08:10:33.674Z,73.60
2022-10-08T08:13:02.026Z,73.50
2022-10-08T08:15:33.325Z,73.50
2022-10-08T08:18:11.098Z,73.00
2022-10-08T08:20:55.497Z,72.70
2022-10-08T08:23:31.274Z,72.50
2022-10-08T08:26:23.041Z,71.80
2022-10-08T08:28:59.264Z,72.10
2022-10-08T08:31:47.676Z,71.00
2022-10-08T09:53:06.322Z,59.10
2022-10-08T09:55:36.577Z,58.90
2022-10-08T09:58:07.133Z,58.50
2022-10-08T10:00:39.649Z,58.70
2022-10-08T10:03:17.905Z,59.30
2022-10-08T10:05:55.263Z,60.10
2022-10-08T10:08:45.285Z,60.40
2022-10-08T10:11:19.699Z,60.50
2022-10-08T10:13:48.550Z,60.10
2022-10-08T10:16:28.327Z,59.80
2022-10-08T10:19:10.113Z,59.10
2022-10-08T10:21:50.078Z,57.60
2022-10-08T10:24:29.020Z,58.20
2022-10-08T10:27:03.691Z,58.30
2022-10-08T10:29:48.900Z,56.10
2022-10-08T10:32:23.806Z,55.90
2022-10-08T10:35:00.466Z,54.30
2022-10-08T10:37:40.225Z,54.40
2022-10-08T10:40:19.259Z,55.00
2022-10-08T10:43:14.682Z,53.90
2022-10-08T10:45:48.460Z,53.60
2022-10-08T10:48:15.655Z,53.40
2022-10-08T10:51:20.687Z,53.90
2022-10-08T10:54:00.811Z,53.40
2022-10-08T10:56:34.110Z,54.40
2022-10-08T10:59:44.958Z,54.60
2022-10-08T11:02:32.031Z,52.70
2022-10-08T11:05:22.912Z,54.00
2022-10-08T11:08:20.253Z,52.50
2022-10-08T11:10:53.211Z,52.50
2022-10-08T11:13:49.417Z,52.10
2022-10-08T11:16:16.541Z,52.30
2022-10-08T11:18:56.834Z,52.10
2022-10-08T11:22:12.250Z,52.60
2022-10-08T11:24:58.231Z,52.40
2022-10-08T11:27:36.710Z,51.30
2022-10-08T11:30:14.350Z,51.60
2022-10-08T11:32:54.136Z,51.10
2022-10-08T11:35:35.066Z,51.30
2022-10-08T11:38:16.048Z,50.60
2022-10-08T11:40:55.764Z,51.00
2022-10-08T11:43:32.702Z,50.90
2022-10-08T11:46:31.816Z,50.00
2022-10-08T11:49:02.101Z,50.00
2022-10-08T11:51:34.892Z,49.00
2022-10-08T11:54:17.882Z,48.60
2022-10-08T11:57:11.582Z,49.10
2022-10-08T11:59:43.603Z,49.10
2022-10-08T12:02:26.900Z,48.80
2022-10-08T12:15:35.662Z,49.30
2022-10-08T12:18:26.350Z,48.00
2022-10-08T12:21:20.601Z,48.60
2022-10-08T12:23:47.717Z,49.60
2022-10-08T12:26:15.797Z,49.40
2022-10-08T12:28:42.999Z,49.00
2022-10-08T12:31:18.028Z,48.70
2022-10-08T12:33:58.813Z,48.80
2022-10-08T12:36:40.192Z,47.40
2022-10-08T12:39:38.276Z,46.90
2022-10-08T12:42:29.942Z,47.50
2022-10-08T12:45:18.931Z,45.90
2022-10-08T12:48:08.972Z,45.90
2022-10-08T12:50:56.239Z,47.10
2022-10-08T12:53:23.751Z,47.40
2022-10-08T12:55:55.063Z,48.20
2022-10-08T12:58:28.648Z,48.20
2022-10-08T13:01:05.385Z,48.20
2022-10-08T13:03:39.368Z,46.90
2022-10-08T13:06:33.679Z,47.60
2022-10-08T13:09:28.684Z,48.20
2022-10-08T13:12:08.525Z,48.80
2022-10-08T13:14:49.847Z,48.90
2022-10-08T13:17:34.924Z,49.40
2022-10-08T13:20:20.984Z,48.60
2022-10-08T13:22:54.998Z,48.60
2022-10-08T13:25:49.650Z,48.60
2022-10-08T13:28:41.815Z,48.40
2022-10-08T13:31:27.117Z,49.20
2022-10-08T13:33:54.708Z,49.40
2022-10-08T13:36:23.501Z,50.30
2022-10-08T13:38:50.773Z,50.30
2022-10-08T13:41:23.934Z,50.90
2022-10-08T13:43:51.354Z,50.80
2022-10-08T13:46:18.447Z,51.10
2022-10-08T13:48:45.531Z,51.20
2022-10-08T13:51:16.069Z,51.50
2022-10-08T13:53:45.687Z,51.50
2022-10-08T13:56:18.136Z,51.70
2022-10-08T13:58:44.958Z,51.70
2022-10-08T14:01:12.083Z,51.60
2022-10-08T14:03:40.313Z,51.50
2022-10-08T14:06:07.828Z,50.90
2022-10-08T14:08:36.379Z,51.10
2022-10-08T14:11:03.742Z,51.60
2022-10-08T14:13:31.362Z,51.60
2022-10-08T14:15:59.022Z,52.10
2022-10-08T14:18:26.671Z,52.60
2022-10-08T14:20:53.521Z,52.90
2022-10-08T14:23:22.202Z,53.20
2022-10-08T14:25:49.132Z,53.40
2022-10-08T14:28:17.337Z,52.90
2022-10-08T14:30:44.261Z,53.00
2022-10-08T14:33:11.891Z,52.80
2022-10-08T14:35:39.597Z,53.10
2022-10-08T14:38:07.872Z,53.20
2022-10-08T14:40:38.999Z,53.40
2022-10-08T14:43:06.082Z,53.80
2022-10-08T14:45:33.046Z,53.90
2022-10-08T14:47:59.969Z,53.90
2022-10-08T14:50:26.830Z,53.90
2022-10-08T14:52:53.861Z,54.10
2022-10-08T14:55:22.469Z,54.20
2022-10-08T14:57:49.810Z,54.50
2022-10-08T15:00:17.107Z,54.80
2022-10-08T15:02:44.033Z,55.10
2022-10-08T15:05:11.027Z,55.30
2022-10-08T15:07:38.024Z,55.50
2022-10-08T15:10:05.593Z,55.20
2022-10-08T15:12:32.536Z,55.10
2022-10-08T15:14:59.654Z,55.30
2022-10-08T15:17:26.569Z,55.40
2022-10-08T15:19:53.404Z,55.40
2022-10-08T15:22:20.673Z,54.80
2022-10-08T15:24:47.853Z,54.80
2022-10-08T15:27:20.569Z,54.80
2022-10-08T15:29:48.203Z,55.20
2022-10-08T15:32:16.338Z,55.50
2022-10-08T15:34:43.469Z,55.90
2022-10-08T15:37:10.236Z,55.90
2022-10-08T15:39:37.659Z,55.90
2022-10-08T15:42:04.605Z,56.00
2022-10-08T15:44:31.990Z,56.20
2022-10-08T15:47:09.448Z,56.20
2022-10-08T15:49:38.967Z,56.40
2022-10-08T15:52:11.890Z,56.40
2022-10-08T15:54:40.138Z,56.70
2022-10-08T15:57:08.506Z,56.90
2022-10-08T15:59:36.004Z,57.10
2022-10-08T16:02:03.611Z,57.20
2022-10-08T16:04:30.496Z,57.30
2022-10-08T16:06:57.458Z,57.50
2022-10-08T16:09:24.718Z,57.60
2022-10-08T16:11:51.805Z,57.80
2022-10-08T16:14:24.335Z,58.00
2022-10-08T16:16:52.151Z,58.20
2022-10-08T16:19:22.395Z,58.50
2022-10-08T16:21:51.000Z,58.70
2022-10-08T16:24:20.850Z,58.70
2022-10-08T16:26:48.917Z,58.90
2022-10-08T16:29:20.464Z,59.00
2022-10-08T16:31:47.809Z,59.20
2022-10-08T16:34:18.650Z,59.40
2022-10-08T16:36:49.031Z,59.60
2022-10-08T16:39:18.909Z,59.80
2022-10-08T16:41:46.589Z,59.90
2022-10-08T16:44:16.285Z,60.20
2022-10-08T16:46:50.413Z,60.30
2022-10-08T16:49:24.483Z,60.50
2022-10-08T16:51:54.889Z,60.70
2022-10-08T16:54:21.715Z,60.80
2022-10-08T16:56:48.896Z,61.00
2022-10-08T16:59:21.570Z,61.20
2022-10-08T17:01:52.001Z,61.40
2022-10-08T17:04:20.357Z,61.60
2022-10-08T17:06:48.036Z,61.90
2022-10-08T17:09:15.178Z,62.10
2022-10-08T17:11:42.267Z,62.40
2022-10-08T17:14:11.694Z,62.60
2022-10-08T17:16:39.194Z,62.80
2022-10-08T17:19:06.414Z,63.00
2022-10-08T17:21:34.978Z,63.10
2022-10-08T17:24:02.840Z,63.20
2022-10-08T17:26:31.863Z,63.40
2022-10-08T17:29:04.340Z,63.50
2022-10-08T17:31:32.081Z,63.40
2022-10-08T17:34:00.672Z,63.50
2022-10-08T17:36:35.153Z,63.80
2022-10-08T17:39:06.072Z,63.90
2022-10-08T17:41:43.146Z,64.00
2022-10-08T17:44:11.711Z,64.40
2022-10-08T17:46:45.831Z,64.50
2022-10-08T17:49:20.615Z,64.60
2022-10-08T17:51:48.442Z,64.80
2022-10-08T17:54:20.181Z,64.80
2022-10-08T17:56:48.133Z,64.90
2022-10-08T17:59:19.180Z,65.20
2022-10-08T18:01:49.502Z,65.20
2022-10-08T18:04:18.851Z,65.20
2022-10-08T18:06:47.312Z,65.40
2022-10-08T18:09:20.110Z,65.50
2022-10-08T18:11:51.976Z,65.60
2022-10-08T18:14:20.490Z,65.70
2022-10-08T18:16:48.695Z,65.90
2022-10-08T18:19:16.962Z,65.90
2022-10-08T18:21:44.217Z,65.80
2022-10-08T18:24:11.252Z,66.10
2022-10-08T18:26:38.223Z,66.20
2022-10-08T18:29:09.263Z,66.30
2022-10-08T18:31:37.377Z,66.60
2022-10-08T18:34:07.638Z,66.70
2022-10-08T18:36:36.863Z,66.70
2022-10-08T18:39:12.337Z,66.70
2022-10-08T18:41:44.705Z,66.90
2022-10-08T18:44:18.419Z,66.90
2022-10-08T18:46:45.493Z,67.00
2022-10-08T18:49:14.507Z,67.30
2022-10-08T18:51:41.667Z,67.30
2022-10-08T18:54:10.267Z,67.30
2022-10-08T18:56:39.442Z,67.30
2022-10-08T18:59:14.894Z,67.40
2022-10-08T19:01:44.459Z,67.40
2022-10-08T19:04:17.083Z,67.50
2022-10-08T19:06:46.746Z,67.50
2022-10-08T19:09:14.523Z,67.60
2022-10-08T19:11:47.595Z,67.70
2022-10-08T19:14:17.139Z,67.80
2022-10-08T19:16:45.154Z,68.00
2022-10-08T19:19:16.519Z,68.10
2022-10-08T19:21:43.941Z,68.10
2022-10-08T19:24:14.742Z,68.20
2022-10-08T19:26:42.713Z,68.20
2022-10-08T19:29:21.065Z,68.40
2022-10-08T19:31:50.265Z,68.50
2022-10-08T19:34:21.055Z,68.50
2022-10-08T19:36:48.676Z,68.60
2022-10-08T19:39:18.563Z,68.60
2022-10-08T19:41:46.070Z,68.70
2022-10-08T19:44:13.180Z,68.70
2022-10-08T19:46:40.497Z,68.60
2022-10-08T19:49:10.060Z,68.70
2022-10-08T19:51:38.063Z,68.80
2022-10-08T19:54:05.822Z,68.80
2022-10-08T19:56:32.869Z,68.80
2022-10-08T19:58:59.927Z,68.90
2022-10-08T20:01:33.575Z,69.00
2022-10-08T20:04:01.951Z,69.00
2022-10-08T20:06:31.360Z,68.90
2022-10-08T20:09:01.191Z,68.90
2022-10-08T20:11:29.905Z,69.10
2022-10-08T20:13:57.495Z,69.20
2022-10-08T20:16:30.889Z,69.30
2022-10-08T20:19:04.151Z,69.20
2022-10-08T20:21:34.348Z,69.20
2022-10-08T20:24:01.630Z,69.40
2022-10-08T20:26:31.746Z,69.40
2022-10-08T20:29:01.166Z,69.40
2022-10-08T20:31:34.539Z,69.50
2022-10-08T20:34:12.065Z,69.60
2022-10-08T20:36:39.092Z,69.60
2022-10-08T20:39:06.418Z,69.70
2022-10-08T20:41:35.097Z,69.80
2022-10-08T20:44:04.119Z,69.70
2022-10-08T20:46:39.522Z,69.70
2022-10-08T20:49:07.418Z,69.90
2022-10-08T20:51:34.935Z,70.10
2022-10-08T20:54:04.486Z,70.10
2022-10-08T20:56:38.527Z,70.10
2022-10-08T20:59:19.479Z,70.20
2022-10-08T21:07:45.970Z,70.50
2022-10-08T21:10:13.290Z,70.60
2022-10-08T21:12:40.147Z,70.70
2022-10-08T21:15:07.936Z,70.70
2022-10-08T21:17:35.101Z,70.80
2022-10-08T21:20:02.135Z,70.80
2022-10-08T21:22:28.901Z,70.90
2022-10-08T21:24:55.931Z,70.80
2022-10-08T21:27:22.847Z,70.90
2022-10-08T21:29:50.890Z,70.80
2022-10-08T21:32:17.910Z,70.80
2022-10-08T21:34:44.855Z,70.80
2022-10-08T21:37:13.879Z,70.80
2022-10-08T21:39:40.926Z,70.80
2022-10-08T21:42:07.737Z,70.80
2022-10-08T21:44:34.740Z,70.90
2022-10-08T21:47:01.537Z,70.80
2022-10-08T21:49:28.390Z,70.80
2022-10-08T21:51:56.281Z,70.80
2022-10-08T21:54:23.034Z,70.90
2022-10-08T21:56:50.049Z,70.90
2022-10-08T21:59:16.980Z,71.00
2022-10-08T22:01:47.238Z,71.00
2022-10-08T22:04:19.523Z,71.10
2022-10-08T22:06:49.076Z,71.10
2022-10-08T22:09:30.338Z,71.10
2022-10-08T22:11:58.294Z,71.10
2022-10-08T22:14:25.892Z,71.10
2022-10-08T22:16:55.796Z,71.20
2022-10-08T22:19:22.643Z,71.20
2022-10-08T22:21:49.388Z,71.20
2022-10-08T22:24:19.277Z,71.30
2022-10-08T22:26:47.477Z,71.20
2022-10-08T22:29:15.038Z,71.30
2022-10-08T22:31:41.947Z,71.40
2022-10-08T22:34:09.283Z,71.50
2022-10-08T22:36:40.349Z,71.50
2022-10-08T22:39:07.399Z,71.50
2022-10-08T22:41:34.875Z,71.60
2022-10-08T22:44:03.702Z,71.60
2022-10-08T22:46:35.292Z,71.60
2022-10-08T22:49:05.855Z,71.70
2022-10-08T22:51:33.276Z,71.80
2022-10-08T22:54:00.125Z,71.80
2022-10-08T22:56:29.177Z,71.80
2022-10-08T22:58:57.289Z,72.00
2022-10-08T23:13:19.002Z,72.20
2022-10-08T23:15:48.811Z,72.20
2022-10-08T23:18:16.182Z,72.20
2022-10-08T23:20:43.608Z,72.30
2022-10-08T23:23:10.991Z,72.30
2022-10-08T23:25:38.297Z,72.40
2022-10-08T23:28:05.806Z,72.40
2022-10-08T23:30:43.030Z,72.40
2022-10-08T23:33:11.124Z,72.50
2022-10-08T23:35:44.338Z,72.50
2022-10-08T23:38:11.872Z,72.50
2022-10-08T23:40:42.096Z,72.60
2022-10-08T23:43:09.433Z,72.50
2022-10-08T23:45:36.754Z,72.50
2022-10-08T23:48:04.458Z,72.60
2022-10-08T23:50:39.259Z,72.70
2022-10-08T23:53:06.779Z,72.70
2022-10-08T23:55:44.367Z,72.80
2022-10-08T23:58:11.827Z,72.80
